Plzen Line, Czech Republic

11:44 PM CEST on April 01, 2015 (GMT +0200)
Ziegelwiesen | | Change Station
CLOSE
Current Station
Personal Weather Station
Location: Zwiesel, BAYERN
Elevation: 1844 ft
Nearby Weather Stations

Elev 1844 ft 49.01 °N, 13.22 °E | Updated 7 minutes ago

Scattered Clouds
Scattered Clouds
32.0 °F
Feels Like 28 °F
N
4.0
Wind Variable Wind from West
Gusts 10.0 mph

Today
High -- | Low -- °F
--% Chance of Precip.
Yesterday
High -- | Low -- °F
Precip. -- in
6:45 AM 7:37 PM
Waxing Gibbous, 94% visible
Pressure 29.98 in
Visibility 6.2 miles
Clouds Few 1700 ft
Scattered Clouds 6000 ft
Windchill 28 °F
Dew Point 31 °F
Humidity 94%
Rainfall 0.02 in
Snow Depth Not available.
UV 0 out of 12
Pollen Not available.
Air Quality Not available.
Flu Activity Not available.
METAR LKLN 012100Z AUTO 29005KT 260V320 9999 FEW017 SCT060 02/M01 Q1015

More Conditions Fewer Conditions

Pressure 29.98 in
Visibility 6.2 miles
Clouds Few 1700 ft
Scattered Clouds 6000 ft
Windchill 28 °F
Dew Point 31 °F
Humidity 94%
Rainfall 0.02 in
Snow Depth Not available.
UV 0 out of 12
Pollen Not available.
Air Quality Not available.
Flu Activity Not available.
METAR LKLN 012100Z AUTO 29005KT 260V320 9999 FEW017 SCT060 02/M01 Q1015

More Conditions Fewer Conditions

10-Day Weather Forecast

Almanac

Astronomy

Apr. 01, 2015 Rise Set
Actual Time
Civil Twilight
Nautical Twilight
Astronomical Twilight
Moon
Length of Visible Light
Length of Day
Tomorrow will be .
, % of the Moon is Illuminated

Today's Extremes

Country Highs Country Lows

Community

WunderPhotos

Upload Photos

1,810,090 photos uploaded!

WunderBlogs® & News

Nearby

Air Quality

  Air Quality AQ Index Pollutant
Not available.

Snow Depth

Station Depth Elevation

Earthquake Activity

City Distance Mag. Time & Date
Minimum magnitude displayed is 2.5.

Coastal Water Temperatures

Place Temperature

Stations

Nearby Weather Stations

Station Location Temp. Windchill Dew Point Humidity Wind Precip. Elev Updated Type